This is the latest recevied weather packets stored in our database for station/object 9M2SAR-10. If no packets are shown the sender has not sent any weather packets the latest 10 day(s).
| Time | Temp. | Humidity | Pressure | Rain* | Wind** | Luminosity | Snow |
|---|---|---|---|---|---|---|---|
| 1777705284 | 34.44° C | 100% | 1007.7 hPa | - | - | - | - |
| 1777704384 | 35° C | 100% | 1007.7 hPa | - | - | - | - |
| 1777703484 | 35° C | 100% | 1008.4 hPa | - | - | - | - |
| 1777702584 | 35° C | 100% | 1008.8 hPa | - | - | - | - |
| 1777701685 | 35.56° C | 100% | 1009 hPa | - | - | - | - |
| 1777700784 | 35.56° C | 100% | 1009.2 hPa | - | - | - | - |
| 1777699884 | 35° C | 100% | 1009.5 hPa | - | - | - | - |
| 1777698984 | 35° C | 100% | 1009.8 hPa | - | - | - | - |
| 1777698084 | 35° C | 100% | 1009.9 hPa | - | - | - | - |
| 1777697184 | 34.44° C | 100% | 1009.8 hPa | - | - | - | - |
| 1777696284 | 33.89° C | 100% | 1009.9 hPa | - | - | - | - |
| 1777695383 | 33.89° C | 100% | 1010.1 hPa | - | - | - | - |
| 1777694483 | 32.22° C | 100% | 1010.3 hPa | - | - | - | - |
| 1777693583 | 32.78° C | 100% | 1010.4 hPa | - | - | - | - |
| 1777692683 | 31.67° C | 100% | 1010.5 hPa | - | - | - | - |
| 1777691783 | 31.67° C | 100% | 1010.7 hPa | - | - | - | - |
| 1777689083 | 30.56° C | 100% | 1010.7 hPa | - | - | - | - |
| 1777673782 | 26.11° C | 100% | 1008.2 hPa | - | - | - | - |
| 1777672882 | 26.11° C | 100% | 1008.3 hPa | - | - | - | - |
| 1777671982 | 26.11° C | 100% | 1008.1 hPa | - | - | - | - |
| 1777671081 | 26.11° C | 100% | 1007.8 hPa | - | - | - | - |
| 1777670181 | 26.11° C | 100% | 1007.8 hPa | - | - | - | - |
| 1777669281 | 26.11° C | 100% | 1007.7 hPa | - | - | - | - |
| 1777666581 | 26.67° C | 100% | 1008.2 hPa | - | - | - | - |
| 1777665681 | 26.67° C | 100% | 1008.3 hPa | - | - | - | - |
* Rain since midnight (hover to see other rain measurements)
** Current wind speed in m/s (hover to see current wind gust speed)